Time;durP1;ratioP1;P1;durP2;ratioP2;P2;SDS_P1;SDS_P2;PMS_P1;PMS_P2;Temp;Humidity;BMP_temperature;BMP_pressure;BME280_temperature;BME280_humidity;BME280_pressure;Samples;Min_cycle;Max_cycle;Signal;HPM_P1;HPM_P2
2021/05/29 00:00:07;;;;;;;;;;;;;;;21.71;44.83;102204.47;2201494;39;113910;-53
2021/05/29 00:01:39;;;;;;;;;;;;;;;21.71;45.38;102191.22;2204632;39;114825;-55
2021/05/29 00:03:11;;;;;;;;;;;;;;;21.72;44.95;102197.69;2205089;39;115392;-54
2021/05/29 00:04:43;;;;;;;;;;;;;;;21.71;45.07;102198.84;2204163;39;115294;-54
2021/05/29 00:06:15;;;;;;;;;;;;;;;21.69;45.59;102201.94;2199982;39;114834;-55
2021/05/29 00:07:47;;;;;;;;;;;;;;;21.69;45.17;102203.91;2204216;39;115515;-52
2021/05/29 00:09:19;;;;;;;;;;;;;;;21.70;45.78;102197.16;2206643;39;114427;-51
2021/05/29 00:10:53;;;;;;;;;;;;;;;21.69;45.63;102195.47;2209259;39;115442;-52
2021/05/29 00:12:25;;;;;;;;;;;;;;;21.70;45.45;102206.44;2198405;39;115182;-51
2021/05/29 00:13:57;;;;;;;;;;;;;;;21.69;45.71;102204.75;2201945;39;114274;-52
2021/05/29 00:15:28;;;;;;;;;;;;;;;21.70;45.44;102195.19;2205367;39;113739;-52
2021/05/29 00:17:01;;;;;;;;;;;;;;;21.69;45.68;102196.31;2203303;39;114869;-53
2021/05/29 00:18:32;;;;;;;;;;;;;;;21.70;45.89;102192.38;2198155;39;116327;-52
2021/05/29 00:20:05;;;;;;;;;;;;;;;21.69;46.00;102195.47;2208817;39;114805;-55
2021/05/29 00:21:37;;;;;;;;;;;;;;;21.71;45.97;102190.41;2199581;39;115233;-54
2021/05/29 00:23:10;;;;;;;;;;;;;;;21.72;46.34;102192.06;2195750;39;115496;-52
2021/05/29 00:24:42;;;;;;;;;;;;;;;21.70;45.98;102198.00;2203097;39;115818;-52
2021/05/29 00:26:17;;;;;;;;;;;;;;;21.66;46.14;102188.44;2204255;39;115449;-51
2021/05/29 00:27:48;;;;;;;;;;;;;;;21.69;46.22;102196.31;2200571;39;116021;-53
2021/05/29 00:29:20;;;;;;;;;;;;;;;21.69;46.08;102187.00;2201583;39;116073;-52
2021/05/29 00:30:55;;;;;;;;;;;;;;;21.67;46.06;102192.91;2206461;39;116412;-53
2021/05/29 00:32:27;;;;;;;;;;;;;;;21.69;46.43;102184.19;2206192;39;115453;-52
2021/05/29 00:34:00;;;;;;;;;;;;;;;21.69;46.21;102185.06;2204056;39;116006;-53
2021/05/29 00:35:35;;;;;;;;;;;;;;;21.68;46.73;102182.50;2204586;39;115838;-52
2021/05/29 00:37:07;;;;;;;;;;;;;;;21.68;46.72;102185.31;2204457;39;115486;-53
2021/05/29 00:38:39;;;;;;;;;;;;;;;21.68;46.79;102188.97;2199281;39;115828;-53
2021/05/29 00:40:11;;;;;;;;;;;;;;;21.67;46.76;102184.47;2200573;39;114539;-52
2021/05/29 00:41:43;;;;;;;;;;;;;;;21.67;46.71;102180.81;2200884;39;115253;-53
2021/05/29 00:43:18;;;;;;;;;;;;;;;21.65;46.91;102189.56;2201215;39;116189;-52
2021/05/29 00:44:51;;;;;;;;;;;;;;;21.66;46.91;102187.59;2202248;39;113730;-52
2021/05/29 00:46:22;;;;;;;;;;;;;;;21.66;47.08;102185.63;2202012;39;113980;-52
2021/05/29 00:47:55;;;;;;;;;;;;;;;21.65;47.09;102186.75;2197308;39;114072;-51
2021/05/29 00:49:27;;;;;;;;;;;;;;;21.66;47.52;102184.78;2203765;39;113681;-53
2021/05/29 00:50:59;;;;;;;;;;;;;;;21.65;47.25;102183.09;2203450;39;114138;-52
2021/05/29 00:52:33;;;;;;;;;;;;;;;21.65;47.47;102189.56;2203657;39;114120;-53
2021/05/29 00:54:06;;;;;;;;;;;;;;;21.64;47.72;102187.88;2203136;39;113987;-53
2021/05/29 00:55:37;;;;;;;;;;;;;;;21.65;47.69;102183.94;2203249;39;114181;-52
2021/05/29 00:57:10;;;;;;;;;;;;;;;21.64;47.55;102185.06;2196703;39;114306;-52
2021/05/29 00:58:42;;;;;;;;;;;;;;;21.64;47.45;102189.84;2199779;39;113841;-52
2021/05/29 01:00:17;;;;;;;;;;;;;;;21.64;47.51;102187.88;2203444;39;113909;-52
2021/05/29 01:01:49;;;;;;;;;;;;;;;21.63;47.58;102186.19;2201720;39;114485;-52
2021/05/29 01:03:21;;;;;;;;;;;;;;;21.62;47.62;102183.69;2201658;39;114351;-53
2021/05/29 01:04:53;;;;;;;;;;;;;;;21.62;48.21;102181.69;2203708;39;113849;-53
2021/05/29 01:06:25;;;;;;;;;;;;;;;21.62;48.06;102192.94;2201739;39;114884;-53
2021/05/29 01:07:57;;;;;;;;;;;;;;;21.62;48.06;102189.31;2201695;39;114872;-53
2021/05/29 01:09:29;;;;;;;;;;;;;;;21.62;48.10;102189.31;2206879;39;113978;-52
2021/05/29 01:11:01;;;;;;;;;;;;;;;21.65;48.05;102183.09;2201626;39;115193;-52
2021/05/29 01:12:33;;;;;;;;;;;;;;;21.67;48.21;102183.63;2198862;39;114857;-53
2021/05/29 01:14:05;;;;;;;;;;;;;;;21.66;48.19;102187.59;2213759;39;114926;-55
2021/05/29 01:15:41;;;;;;;;;;;;;;;21.65;47.99;102186.75;2208282;39;115139;-53
2021/05/29 01:17:15;;;;;;;;;;;;;;;21.63;48.15;102194.63;2204735;39;114951;-53
2021/05/29 01:18:47;;;;;;;;;;;;;;;21.62;48.54;102192.94;2199077;39;114774;-53
2021/05/29 01:20:18;;;;;;;;;;;;;;;21.66;48.36;102196.03;2203013;39;115190;-52
2021/05/29 01:21:50;;;;;;;;;;;;;;;21.67;48.42;102200.50;2206678;39;114285;-52
2021/05/29 01:23:22;;;;;;;;;;;;;;;21.67;48.09;102192.06;2209830;39;114780;-53
2021/05/29 01:24:54;;;;;;;;;;;;;;;21.67;48.55;102203.31;2198373;39;114879;-52
2021/05/29 01:26:26;;;;;;;;;;;;;;;21.66;48.45;102194.06;2211022;39;114906;-52
2021/05/29 01:27:58;;;;;;;;;;;;;;;21.66;48.53;102202.50;2211557;39;115506;-52
2021/05/29 01:29:31;;;;;;;;;;;;;;;21.65;48.41;102200.81;2207636;39;114526;-52
2021/05/29 01:31:06;;;;;;;;;;;;;;;21.65;48.91;102199.97;2205435;39;115783;-53
2021/05/29 01:32:38;;;;;;;;;;;;;;;21.65;48.70;102199.97;2212828;39;114618;-53
2021/05/29 01:34:12;;;;;;;;;;;;;;;21.64;48.57;102199.13;2207024;39;115544;-54
2021/05/29 01:35:44;;;;;;;;;;;;;;;21.64;48.53;102199.13;2207365;39;115467;-53
2021/05/29 01:37:16;;;;;;;;;;;;;;;21.67;49.04;102200.50;2210361;39;115505;-53
2021/05/29 01:38:48;;;;;;;;;;;;;;;21.65;48.56;102198.00;2205224;39;114749;-54
2021/05/29 01:40:20;;;;;;;;;;;;;;;21.67;48.65;102203.31;2201646;39;115297;-53
2021/05/29 01:41:52;;;;;;;;;;;;;;;21.67;48.53;102208.94;2196774;39;115411;-53
2021/05/29 01:43:25;;;;;;;;;;;;;;;21.64;49.19;102201.94;2202263;39;115398;-54
2021/05/29 01:44:57;;;;;;;;;;;;;;;21.67;49.00;102197.69;2207996;39;115735;-53
2021/05/29 01:46:29;;;;;;;;;;;;;;;21.67;48.58;102204.16;2204755;39;115837;-53
2021/05/29 01:48:02;;;;;;;;;;;;;;;21.65;48.82;102208.41;2208872;39;115456;-53
2021/05/29 01:49:35;;;;;;;;;;;;;;;21.65;48.99;102206.44;2205920;39;115427;-53
2021/05/29 01:51:07;;;;;;;;;;;;;;;21.65;49.17;102202.78;2209185;39;113770;-53
2021/05/29 01:52:42;;;;;;;;;;;;;;;21.67;49.22;102200.50;2202628;39;114511;-53
2021/05/29 01:54:15;;;;;;;;;;;;;;;21.66;49.12;102199.69;2206624;39;114248;-53
2021/05/29 01:55:47;;;;;;;;;;;;;;;21.66;48.88;102207.28;2203771;39;113859;-53
2021/05/29 01:57:19;;;;;;;;;;;;;;;21.65;48.97;102200.81;2201645;39;113885;-53
2021/05/29 01:58:51;;;;;;;;;;;;;;;21.67;49.22;102200.50;2206066;39;113700;-53
2021/05/29 02:00:24;;;;;;;;;;;;;;;21.65;49.29;102198.00;2208375;39;113796;-53
2021/05/29 02:01:56;;;;;;;;;;;;;;;21.65;49.26;102203.63;2200805;39;113960;-52
2021/05/29 02:03:28;;;;;;;;;;;;;;;21.66;49.08;102205.31;2204482;39;113958;-53
2021/05/29 02:05:07;;;;;;;;;;;;;;;21.67;49.36;102200.50;2209571;39;113648;-54
2021/05/29 02:06:39;;;;;;;;;;;;;;;21.66;49.68;102207.28;2205112;39;113831;-53
2021/05/29 02:08:12;;;;;;;;;;;;;;;21.65;49.23;102206.44;2208983;39;113871;-53
2021/05/29 02:09:44;;;;;;;;;;;;;;;21.69;49.44;102209.53;2199019;39;113823;-53
2021/05/29 02:11:16;;;;;;;;;;;;;;;21.66;49.57;102210.94;2209253;39;113955;-55
2021/05/29 02:12:49;;;;;;;;;;;;;;;21.67;49.49;102206.13;2198001;39;114872;-53
2021/05/29 02:14:21;;;;;;;;;;;;;;;21.67;49.21;102206.97;2200459;39;115099;-52
2021/05/29 02:15:53;;;;;;;;;;;;;;;21.66;49.13;102201.66;2207190;39;114827;-53
2021/05/29 02:17:25;;;;;;;;;;;;;;;21.66;49.00;102204.47;2209307;39;114819;-53
2021/05/29 02:18:57;;;;;;;;;;;;;;;21.68;49.28;102211.50;2210130;39;115002;-54
2021/05/29 02:20:29;;;;;;;;;;;;;;;21.65;49.26;102206.44;2209869;39;114881;-52
2021/05/29 02:22:01;;;;;;;;;;;;;;;21.64;49.35;102206.72;2210894;39;114734;-52
2021/05/29 02:23:36;;;;;;;;;;;;;;;21.64;49.29;102213.19;2202111;39;114988;-53
2021/05/29 02:25:08;;;;;;;;;;;;;;;21.62;48.99;102207.00;2207877;39;114187;-53
2021/05/29 02:26:40;;;;;;;;;;;;;;;21.63;49.38;102217.13;2202999;39;114876;-53
2021/05/29 02:28:12;;;;;;;;;;;;;;;21.65;49.07;102214.03;2206698;39;115635;-53
2021/05/29 02:29:44;;;;;;;;;;;;;;;21.62;49.58;102215.44;2204236;39;113907;-54
2021/05/29 02:31:17;;;;;;;;;;;;;;;21.61;49.37;102219.41;2205896;39;114824;-52
2021/05/29 02:32:50;;;;;;;;;;;;;;;21.61;49.26;102222.22;2203478;39;115498;-52
2021/05/29 02:34:22;;;;;;;;;;;;;;;21.61;49.41;102222.22;2205466;39;115547;-52
2021/05/29 02:35:54;;;;;;;;;;;;;;;21.62;49.24;102221.06;2210548;39;115500;-52
2021/05/29 02:37:26;;;;;;;;;;;;;;;21.58;50.01;102222.75;2201762;39;115320;-54
2021/05/29 02:38:58;;;;;;;;;;;;;;;21.61;49.38;102225.03;2199781;39;114702;-52
2021/05/29 02:40:29;;;;;;;;;;;;;;;21.61;49.78;102227.00;2208733;39;115304;-53
2021/05/29 02:42:02;;;;;;;;;;;;;;;21.62;49.84;102228.69;2203697;39;115515;-53
2021/05/29 02:43:34;;;;;;;;;;;;;;;21.60;49.92;102219.66;2202517;39;115506;-54
2021/05/29 02:45:06;;;;;;;;;;;;;;;21.61;49.68;102232.63;2207086;39;115627;-53
2021/05/29 02:46:38;;;;;;;;;;;;;;;21.61;49.96;102233.47;2197075;39;116828;-52
2021/05/29 02:48:10;;;;;;;;;;;;;;;21.62;50.13;102223.88;2206752;39;115473;-52
2021/05/29 02:49:42;;;;;;;;;;;;;;;21.63;49.75;102230.34;2198049;39;115387;-52
2021/05/29 02:51:14;;;;;;;;;;;;;;;21.62;49.92;102231.50;2203131;39;114609;-52
2021/05/29 02:52:46;;;;;;;;;;;;;;;21.61;50.05;102233.47;2204978;39;115970;-52
2021/05/29 02:54:20;;;;;;;;;;;;;;;21.62;49.91;102232.31;2206656;39;115808;-52
2021/05/29 02:55:52;;;;;;;;;;;;;;;21.62;50.26;102228.69;2204788;39;113705;-53
2021/05/29 02:57:24;;;;;;;;;;;;;;;21.62;50.34;102231.50;2206220;39;113986;-52
2021/05/29 02:58:56;;;;;;;;;;;;;;;21.60;50.49;102231.75;2204743;39;113891;-53
2021/05/29 03:00:29;;;;;;;;;;;;;;;21.60;50.19;102240.19;2204690;39;113907;-53
2021/05/29 03:02:02;;;;;;;;;;;;;;;21.61;50.37;102241.91;2208646;39;113938;-52
2021/05/29 03:03:34;;;;;;;;;;;;;;;21.59;50.76;102230.06;2208938;39;115942;-53
2021/05/29 03:05:06;;;;;;;;;;;;;;;21.61;50.68;102239.09;2210214;39;113644;-53
2021/05/29 03:06:38;;;;;;;;;;;;;;;21.59;50.26;102241.31;2210859;39;113772;-53
2021/05/29 03:08:11;;;;;;;;;;;;;;;21.60;50.50;102245.81;2209656;39;113694;-53
2021/05/29 03:09:43;;;;;;;;;;;;;;;21.60;50.64;102245.81;2210055;39;114302;-53
2021/05/29 03:11:15;;;;;;;;;;;;;;;21.59;50.54;102244.13;2206310;39;113753;-53
2021/05/29 03:12:49;;;;;;;;;;;;;;;21.60;50.85;102242.16;2208063;39;113654;-52
2021/05/29 03:14:21;;;;;;;;;;;;;;;21.61;51.02;102243.88;2206453;39;114009;-53
2021/05/29 03:15:53;;;;;;;;;;;;;;;21.60;50.80;102243.00;2208025;39;113638;-52
2021/05/29 03:17:24;;;;;;;;;;;;;;;21.60;50.62;102239.34;2211390;39;113792;-52
2021/05/29 03:18:56;;;;;;;;;;;;;;;21.62;50.48;102240.75;2203177;39;114800;-53
2021/05/29 03:20:28;;;;;;;;;;;;;;;21.62;50.56;102239.94;2207037;39;114922;-54
2021/05/29 03:22:00;;;;;;;;;;;;;;;21.61;50.60;102241.91;2206607;39;114928;-53
2021/05/29 03:23:32;;;;;;;;;;;;;;;21.59;50.91;102241.31;2201709;39;114713;-52
2021/05/29 03:25:05;;;;;;;;;;;;;;;21.60;50.68;102242.16;2205846;39;114801;-53
2021/05/29 03:26:37;;;;;;;;;;;;;;;21.60;50.60;102254.25;2204282;39;115441;-52
2021/05/29 03:28:09;;;;;;;;;;;;;;;21.61;50.90;102250.34;2201926;39;114995;-53
2021/05/29 03:29:41;;;;;;;;;;;;;;;21.60;50.84;102247.78;2205458;39;114772;-52
2021/05/29 03:31:13;;;;;;;;;;;;;;;21.60;50.88;102254.25;2206373;39;114788;-52
2021/05/29 03:32:46;;;;;;;;;;;;;;;21.62;50.50;102249.19;2206070;39;114934;-52
2021/05/29 03:34:17;;;;;;;;;;;;;;;21.63;50.84;102256.50;2205658;39;116037;-54
2021/05/29 03:35:49;;;;;;;;;;;;;;;21.61;50.59;102255.97;2205132;39;114069;-53
2021/05/29 03:37:21;;;;;;;;;;;;;;;21.61;50.86;102255.97;2206178;39;114839;-53
2021/05/29 03:38:54;;;;;;;;;;;;;;;21.61;50.61;102250.34;2212113;39;115470;-54
2021/05/29 03:40:26;;;;;;;;;;;;;;;21.62;50.74;102263.25;2206416;39;115829;-52
2021/05/29 03:41:58;;;;;;;;;;;;;;;21.61;50.57;102258.78;2200343;39;114384;-53
2021/05/29 03:43:30;;;;;;;;;;;;;;;21.61;50.73;102257.94;2207957;39;115909;-53
2021/05/29 03:45:02;;;;;;;;;;;;;;;21.61;50.37;102255.97;2197007;39;115824;-53
2021/05/29 03:46:36;;;;;;;;;;;;;;;21.60;50.66;102259.91;2199760;39;115069;-53
2021/05/29 03:48:08;;;;;;;;;;;;;;;21.60;50.57;102270.28;2206591;39;115455;-52
2021/05/29 03:49:39;;;;;;;;;;;;;;;21.61;50.67;102260.75;2205063;39;114527;-52
2021/05/29 03:51:11;;;;;;;;;;;;;;;21.59;50.48;102263.81;2208248;39;115480;-53
2021/05/29 03:52:44;;;;;;;;;;;;;;;21.56;51.06;102264.41;2205696;39;115503;-53
2021/05/29 03:54:17;;;;;;;;;;;;;;;21.60;50.54;102267.47;2207255;39;115516;-53
2021/05/29 03:55:48;;;;;;;;;;;;;;;21.60;50.66;102267.47;2206504;39;115922;-56
2021/05/29 03:57:20;;;;;;;;;;;;;;;21.59;50.51;102271.41;2198472;39;115980;-52
2021/05/29 03:58:52;;;;;;;;;;;;;;;21.57;50.67;102262.44;2208742;39;115475;-53
2021/05/29 04:00:24;;;;;;;;;;;;;;;21.59;50.74;102265.78;2206134;39;114986;-53
2021/05/29 04:01:56;;;;;;;;;;;;;;;21.62;50.50;102262.44;2208259;39;113783;-53
2021/05/29 04:03:28;;;;;;;;;;;;;;;21.60;50.74;102267.47;2202538;39;114048;-53
2021/05/29 04:04:59;;;;;;;;;;;;;;;21.61;50.41;102258.78;2204646;39;113885;-52
2021/05/29 04:06:31;;;;;;;;;;;;;;;21.60;50.38;102265.53;2204995;39;113965;-53
2021/05/29 04:08:03;;;;;;;;;;;;;;;21.60;50.46;102264.66;2207278;39;113638;-52
2021/05/29 04:09:35;;;;;;;;;;;;;;;21.60;50.77;102270.28;2203495;39;113805;-53
2021/05/29 04:11:07;;;;;;;;;;;;;;;21.59;50.38;102261.00;2208783;39;113815;-53
2021/05/29 04:12:39;;;;;;;;;;;;;;;21.56;50.57;102270.03;2199685;39;113669;-53
2021/05/29 04:14:11;;;;;;;;;;;;;;;21.58;50.40;102264.94;2211527;39;113849;-52
2021/05/29 04:15:43;;;;;;;;;;;;;;;21.58;50.71;102267.75;2212598;39;113990;-53
2021/05/29 04:17:15;;;;;;;;;;;;;;;21.59;50.10;102269.44;2206404;39;113681;-53
2021/05/29 04:18:47;;;;;;;;;;;;;;;21.59;50.59;102266.63;2204031;39;113993;-52
2021/05/29 04:20:20;;;;;;;;;;;;;;;21.58;50.39;102278.16;2208285;39;113866;-52
2021/05/29 04:21:52;;;;;;;;;;;;;;;21.58;50.24;102264.94;2208632;39;113841;-53
2021/05/29 04:23:24;;;;;;;;;;;;;;;21.56;50.39;102267.22;2198950;39;113988;-52
2021/05/29 04:24:55;;;;;;;;;;;;;;;21.55;50.64;102265.53;2204467;39;114755;-52
2021/05/29 04:26:27;;;;;;;;;;;;;;;21.55;50.43;102271.16;2205780;39;115093;-53
2021/05/29 04:27:59;;;;;;;;;;;;;;;21.57;50.77;102273.69;2208073;39;115384;-53
2021/05/29 04:29:31;;;;;;;;;;;;;;;21.59;50.54;102280.69;2203239;39;114853;-54
2021/05/29 04:31:03;;;;;;;;;;;;;;;21.58;50.45;102279.00;2207401;39;114825;-52
2021/05/29 04:32:35;;;;;;;;;;;;;;;21.56;50.27;102284.09;2201999;39;114555;-53
2021/05/29 04:34:07;;;;;;;;;;;;;;;21.56;50.18;102278.47;2202530;39;115416;-53
2021/05/29 04:35:38;;;;;;;;;;;;;;;21.55;50.58;102284.38;2204667;39;114781;-53
2021/05/29 04:37:13;;;;;;;;;;;;;;;21.54;50.27;102282.66;2204840;39;114976;-52
2021/05/29 04:38:44;;;;;;;;;;;;;;;21.52;50.43;102285.78;2204979;39;114826;-53
2021/05/29 04:40:17;;;;;;;;;;;;;;;21.53;50.15;102292.25;2200294;39;115099;-53
2021/05/29 04:41:52;;;;;;;;;;;;;;;21.52;50.68;102288.59;2194929;39;114949;-53
2021/05/29 04:43:24;;;;;;;;;;;;;;;21.54;50.27;102294.75;2201991;39;115052;-53
2021/05/29 04:44:56;;;;;;;;;;;;;;;21.53;50.29;102293.06;2193954;39;115666;-53
2021/05/29 04:46:28;;;;;;;;;;;;;;;21.53;50.44;102295.06;2203362;39;115502;-54
2021/05/29 04:48:00;;;;;;;;;;;;;;;21.51;50.29;102286.91;2205466;39;115923;-52
2021/05/29 04:49:32;;;;;;;;;;;;;;;21.52;50.28;102288.59;2206060;39;115740;-52
2021/05/29 04:52:39;;;;;;;;;;;;;;;21.53;50.86;102287.44;2204070;39;115310;-53
2021/05/29 04:54:12;;;;;;;;;;;;;;;21.53;50.47;102286.63;2196145;39;115579;-52
2021/05/29 04:55:44;;;;;;;;;;;;;;;21.53;50.50;102286.63;2202288;39;114669;-53
2021/05/29 04:57:16;;;;;;;;;;;;;;;21.53;50.50;102286.63;2204817;39;115754;-53
2021/05/29 04:58:48;;;;;;;;;;;;;;;21.53;50.72;102289.44;2205343;39;115450;-52
2021/05/29 05:00:20;;;;;;;;;;;;;;;21.52;50.79;102294.22;2210976;39;115951;-53
2021/05/29 05:01:51;;;;;;;;;;;;;;;21.52;50.75;102288.59;2210601;39;116026;-53
2021/05/29 05:03:24;;;;;;;;;;;;;;;21.52;50.67;102290.56;2203730;39;115511;-53
2021/05/29 05:04:55;;;;;;;;;;;;;;;21.52;50.63;102291.41;2207206;39;115648;-53
2021/05/29 05:06:28;;;;;;;;;;;;;;;21.51;50.82;102291.69;2206903;39;115073;-53
2021/05/29 05:07:59;;;;;;;;;;;;;;;21.51;50.54;102295.34;2204738;39;113665;-52
2021/05/29 05:09:31;;;;;;;;;;;;;;;21.52;50.48;102308.28;2211056;39;114000;-55
2021/05/29 05:11:03;;;;;;;;;;;;;;;21.49;50.58;102297.56;2209993;39;114250;-52
2021/05/29 05:12:35;;;;;;;;;;;;;;;21.50;50.64;102299.28;2210805;39;113861;-53
2021/05/29 05:14:07;;;;;;;;;;;;;;;21.51;50.64;102297.31;2205930;39;113870;-53
2021/05/29 05:15:39;;;;;;;;;;;;;;;21.49;50.91;102300.38;2208370;39;114064;-53
2021/05/29 05:17:12;;;;;;;;;;;;;;;21.49;50.61;102296.72;2209378;39;113707;-52
2021/05/29 05:18:44;;;;;;;;;;;;;;;21.49;50.87;102291.94;2201007;39;113857;-52
2021/05/29 05:20:17;;;;;;;;;;;;;;;21.49;50.60;102297.56;2206488;39;114234;-52
2021/05/29 05:21:49;;;;;;;;;;;;;;;21.48;51.00;102297.88;2209005;39;113780;-52
2021/05/29 05:23:22;;;;;;;;;;;;;;;21.50;50.90;102301.25;2204345;39;113970;-52
2021/05/29 05:24:54;;;;;;;;;;;;;;;21.49;50.84;102300.38;2210827;39;113750;-52
2021/05/29 05:26:26;;;;;;;;;;;;;;;21.47;51.06;102299.84;2204585;39;113978;-53
2021/05/29 05:27:58;;;;;;;;;;;;;;;21.49;50.80;102307.97;2207139;39;113771;-53
2021/05/29 05:29:29;;;;;;;;;;;;;;;21.48;51.10;102312.78;2204115;39;113900;-53
2021/05/29 05:31:03;;;;;;;;;;;;;;;21.46;51.21;102315.03;2208610;39;113869;-53
2021/05/29 05:32:36;;;;;;;;;;;;;;;21.49;50.91;102311.63;2204138;39;114973;-52
2021/05/29 05:34:10;;;;;;;;;;;;;;;21.50;50.51;102310.53;2199684;39;113721;-53
2021/05/29 05:35:43;;;;;;;;;;;;;;;21.51;50.82;102317.00;2207197;39;114768;-56
2021/05/29 05:37:14;;;;;;;;;;;;;;;21.47;50.91;102316.72;2209137;39;114771;-53
2021/05/29 05:38:46;;;;;;;;;;;;;;;21.46;50.70;102315.03;2205169;39;114779;-53
2021/05/29 05:40:18;;;;;;;;;;;;;;;21.48;50.61;102320.38;2206953;39;114849;-53
2021/05/29 05:41:50;;;;;;;;;;;;;;;21.48;50.55;102312.78;2204986;39;115445;-53
2021/05/29 05:43:22;;;;;;;;;;;;;;;21.49;50.63;102316.41;2203095;39;114786;-53
2021/05/29 05:44:54;;;;;;;;;;;;;;;21.49;50.51;102305.16;2202947;39;114878;-53
2021/05/29 05:46:26;;;;;;;;;;;;;;;21.49;50.75;102313.59;2209013;39;114996;-53
2021/05/29 05:47:58;;;;;;;;;;;;;;;21.48;50.85;102303.50;2201893;39;115040;-53
2021/05/29 05:49:30;;;;;;;;;;;;;;;21.47;50.85;102305.47;2206884;39;115165;-53
2021/05/29 05:51:01;;;;;;;;;;;;;;;21.46;50.77;102309.41;2204542;39;115562;-53
2021/05/29 05:52:33;;;;;;;;;;;;;;;21.46;50.56;102302.94;2204373;39;115479;-53
2021/05/29 05:54:05;;;;;;;;;;;;;;;21.46;50.98;102306.59;2210309;39;115619;-53
2021/05/29 05:55:37;;;;;;;;;;;;;;;21.46;50.76;102309.41;2210417;39;115499;-52
2021/05/29 05:57:09;;;;;;;;;;;;;;;21.45;50.96;102310.53;2205838;39;115439;-53
2021/05/29 05:58:41;;;;;;;;;;;;;;;21.47;50.53;102318.69;2214139;39;115461;-53
2021/05/29 06:00:14;;;;;;;;;;;;;;;21.45;50.94;102316.13;2206875;39;116285;-53
2021/05/29 06:01:48;;;;;;;;;;;;;;;21.46;50.69;102317.00;2212017;39;114503;-56
2021/05/29 06:03:21;;;;;;;;;;;;;;;21.46;50.56;102317.84;2212144;39;115681;-52
2021/05/29 06:04:53;;;;;;;;;;;;;;;21.45;50.66;102320.91;2203607;39;115497;-53
2021/05/29 06:06:25;;;;;;;;;;;;;;;21.44;50.97;102325.69;2202545;39;115598;-53
2021/05/29 06:07:57;;;;;;;;;;;;;;;21.45;50.51;102330.19;2201587;39;115420;-52
2021/05/29 06:09:29;;;;;;;;;;;;;;;21.44;51.18;102322.88;2204250;39;115734;-53
2021/05/29 06:11:01;;;;;;;;;;;;;;;21.45;51.17;102330.19;2213259;39;115676;-53
2021/05/29 06:12:35;;;;;;;;;;;;;;;21.46;51.32;102331.06;2205872;39;113713;-52
2021/05/29 06:20:24;;;;;;;;;;;;;;;21.45;51.43;102341.44;2208320;39;113921;-52
2021/05/29 06:21:57;;;;;;;;;;;;;;;21.46;51.18;102343.16;2199888;39;113986;-53
2021/05/29 06:23:29;;;;;;;;;;;;;;;21.45;51.54;102344.25;2202311;39;114015;-54
2021/05/29 06:25:00;;;;;;;;;;;;;;;21.46;51.69;102347.91;2205191;39;113709;-53
2021/05/29 06:26:32;;;;;;;;;;;;;;;21.45;51.31;102347.06;2210691;39;114937;-53
2021/05/29 06:28:04;;;;;;;;;;;;;;;21.45;51.70;102343.41;2210858;39;113998;-53
2021/05/29 06:29:36;;;;;;;;;;;;;;;21.44;51.70;102351.00;2204037;39;113935;-53
2021/05/29 06:31:08;;;;;;;;;;;;;;;21.46;51.57;102351.59;2205584;39;113754;-53
2021/05/29 06:32:40;;;;;;;;;;;;;;;21.44;51.31;102356.63;2201442;39;113650;-52
2021/05/29 06:34:13;;;;;;;;;;;;;;;21.46;51.65;102360.00;2206938;39;116350;-53
2021/05/29 06:35:45;;;;;;;;;;;;;;;21.46;51.32;102360.00;2204573;39;114832;-53
2021/05/29 06:37:16;;;;;;;;;;;;;;;21.45;51.83;102363.94;2206696;39;114741;-54
2021/05/29 06:38:48;;;;;;;;;;;;;;;21.46;51.44;102360.00;2205840;39;114324;-53
2021/05/29 06:40:20;;;;;;;;;;;;;;;21.48;51.88;102368.19;2206793;39;114122;-53
2021/05/29 06:41:52;;;;;;;;;;;;;;;21.47;51.42;102367.34;2209335;39;115391;-54
2021/05/29 06:43:24;;;;;;;;;;;;;;;21.47;49.73;102366.50;2207328;39;114367;-53
2021/05/29 06:44:56;;;;;;;;;;;;;;;21.47;49.06;102366.50;2204958;39;114881;-53
2021/05/29 06:46:27;;;;;;;;;;;;;;;21.45;48.07;102361.13;2205890;39;115279;-53
2021/05/29 06:47:59;;;;;;;;;;;;;;;21.43;48.13;102359.75;2204494;39;114884;-52
2021/05/29 06:49:31;;;;;;;;;;;;;;;21.42;47.85;102364.53;2205612;39;115184;-53
2021/05/29 06:51:04;;;;;;;;;;;;;;;21.38;47.93;102363.41;2206209;39;115489;-53
2021/05/29 06:52:39;;;;;;;;;;;;;;;21.36;47.84;102365.63;2206636;39;114863;-53
2021/05/29 06:54:19;;;;;;;;;;;;;;;21.37;47.66;102361.69;2202543;39;115901;-53
2021/05/29 06:59:02;;;;;;;;;;;;;;;21.36;46.63;102368.44;2206548;39;115283;-52
2021/05/29 07:00:34;;;;;;;;;;;;;;;21.34;47.04;102367.03;2206420;39;115872;-53
2021/05/29 07:02:06;;;;;;;;;;;;;;;21.35;47.76;102369.56;2201871;39;114730;-53
2021/05/29 07:03:38;;;;;;;;;;;;;;;21.35;47.05;102377.19;2200978;39;116026;-53
2021/05/29 07:05:11;;;;;;;;;;;;;;;21.30;46.79;102370.41;2210895;39;115459;-53
2021/05/29 07:06:42;;;;;;;;;;;;;;;21.35;48.47;102371.56;2198590;39;115435;-53
2021/05/29 07:08:14;;;;;;;;;;;;;;;21.35;48.02;102371.56;2201124;39;114639;-52
2021/05/29 07:09:46;;;;;;;;;;;;;;;21.38;48.29;102379.41;2204927;39;116106;-53
2021/05/29 07:11:18;;;;;;;;;;;;;;;21.39;48.50;102379.16;2208416;39;115462;-52
2021/05/29 07:12:50;;;;;;;;;;;;;;;21.40;48.34;102383.63;2206793;39;115730;-52
2021/05/29 07:14:22;;;;;;;;;;;;;;;21.41;48.48;102382.50;2198605;39;116025;-53
2021/05/29 07:15:54;;;;;;;;;;;;;;;21.40;48.74;102380.81;2206495;39;114702;-53
2021/05/29 07:19:02;;;;;;;;;;;;;;;21.40;48.78;102391.22;2209907;39;113860;-53
2021/05/29 07:20:33;;;;;;;;;;;;;;;21.39;49.10;102392.34;2209442;39;113675;-52
2021/05/29 07:22:05;;;;;;;;;;;;;;;21.41;49.04;102390.94;2206097;39;114162;-53
2021/05/29 07:23:37;;;;;;;;;;;;;;;21.42;48.95;102386.16;2200889;39;114276;-53
2021/05/29 07:25:09;;;;;;;;;;;;;;;21.41;49.02;102395.72;2204292;39;113945;-52
2021/05/29 07:26:41;;;;;;;;;;;;;;;21.41;49.53;102385.31;2200230;39;113933;-53
2021/05/29 07:28:15;;;;;;;;;;;;;;;21.43;49.55;102394.34;2202926;39;114510;-53
2021/05/29 07:29:47;;;;;;;;;;;;;;;21.43;49.62;102399.97;2206124;39;114349;-52
2021/05/29 07:31:19;;;;;;;;;;;;;;;21.42;49.85;102397.41;2204262;39;114057;-52
2021/05/29 07:32:51;;;;;;;;;;;;;;;21.41;49.70;102402.19;2206867;39;113837;-52
2021/05/29 07:34:23;;;;;;;;;;;;;;;21.41;49.47;102407.81;2206738;39;114288;-53
2021/05/29 07:35:55;;;;;;;;;;;;;;;21.42;49.89;102403.03;2206545;39;113796;-52
2021/05/29 07:37:27;;;;;;;;;;;;;;;21.42;49.73;102405.84;2213334;39;113895;-53
2021/05/29 07:38:59;;;;;;;;;;;;;;;21.41;49.79;102404.16;2211920;39;114473;-53
2021/05/29 07:40:31;;;;;;;;;;;;;;;21.43;49.44;102407.53;2207395;39;115163;-52
2021/05/29 07:42:03;;;;;;;;;;;;;;;21.43;50.05;102397.16;2204823;39;114968;-53
2021/05/29 07:43:35;;;;;;;;;;;;;;;21.43;49.42;102405.59;2199309;39;115502;-52
2021/05/29 07:45:07;;;;;;;;;;;;;;;21.44;50.05;102401.63;2205070;39;115265;-53
2021/05/29 07:46:39;;;;;;;;;;;;;;;21.44;49.73;102403.63;2206721;39;115123;-52
2021/05/29 07:48:12;;;;;;;;;;;;;;;21.45;50.02;102402.47;2205972;39;114793;-53
2021/05/29 07:49:44;;;;;;;;;;;;;;;21.44;50.06;102400.81;2200113;39;114619;-53
2021/05/29 07:51:16;;;;;;;;;;;;;;;21.45;50.28;102403.31;2202122;39;114846;-53
2021/05/29 07:52:49;;;;;;;;;;;;;;;21.46;50.45;102405.00;2205287;39;115363;-53
2021/05/29 07:54:21;;;;;;;;;;;;;;;21.50;50.49;102399.66;2205961;39;114974;-53
2021/05/29 07:55:53;;;;;;;;;;;;;;;21.52;50.12;102403.91;2205494;39;115104;-53
2021/05/29 07:57:24;;;;;;;;;;;;;;;21.56;50.33;102405.03;2208405;39;116700;-53
2021/05/29 07:58:58;;;;;;;;;;;;;;;21.59;50.61;102409.25;2205781;39;114861;-52
2021/05/29 08:00:31;;;;;;;;;;;;;;;21.59;50.54;102412.03;2208232;39;115191;-53